createdAt,value
2017-10-15T00:01:02.323Z,5.20
2017-10-15T00:03:30.549Z,6.00
2017-10-15T00:05:57.994Z,5.60
2017-10-15T00:08:25.424Z,7.37
2017-10-15T00:10:52.857Z,4.67
2017-10-15T00:13:21.079Z,6.37
2017-10-15T00:15:48.514Z,7.43
2017-10-15T00:18:15.958Z,6.57
2017-10-15T00:20:44.147Z,9.70
2017-10-15T00:23:11.605Z,17.30
2017-10-15T00:25:39.029Z,7.57
2017-10-15T00:28:16.177Z,6.67
2017-10-15T00:30:43.641Z,5.40
2017-10-15T00:33:11.185Z,8.50
2017-10-15T00:35:38.653Z,7.77
2017-10-15T00:38:06.108Z,5.63
2017-10-15T00:40:33.555Z,11.50
2017-10-15T00:43:00.992Z,6.40
2017-10-15T00:45:28.422Z,6.20
2017-10-15T00:47:55.865Z,6.30
2017-10-15T00:50:23.295Z,6.50
2017-10-15T00:52:50.748Z,7.50
2017-10-15T00:55:18.193Z,11.60
2017-10-15T00:57:45.669Z,6.53
2017-10-15T01:00:13.105Z,7.63
2017-10-15T01:02:40.528Z,13.77
2017-10-15T01:05:08.745Z,13.07
2017-10-15T01:07:36.209Z,5.33
2017-10-15T01:10:03.670Z,7.00
2017-10-15T01:12:31.093Z,7.07
2017-10-15T01:14:58.540Z,7.30
2017-10-15T01:17:26.760Z,6.70
2017-10-15T01:19:54.189Z,7.00
2017-10-15T01:22:21.629Z,9.73
2017-10-15T01:24:49.832Z,9.27
2017-10-15T01:27:17.276Z,6.83
2017-10-15T01:29:44.764Z,7.87
2017-10-15T01:32:12.221Z,7.20
2017-10-15T01:34:39.654Z,7.30
2017-10-15T01:37:07.080Z,6.90
2017-10-15T01:39:35.289Z,8.30
2017-10-15T01:42:02.723Z,7.37
2017-10-15T01:44:30.949Z,5.27
2017-10-15T01:46:58.390Z,7.40
2017-10-15T01:49:25.842Z,7.60
2017-10-15T01:51:53.261Z,7.03
2017-10-15T01:54:21.469Z,8.77
2017-10-15T01:56:48.957Z,11.80
2017-10-15T01:59:16.389Z,6.40
2017-10-15T02:01:43.954Z,13.23
2017-10-15T02:04:11.365Z,6.00
2017-10-15T02:06:39.570Z,6.87
2017-10-15T02:09:07.008Z,8.07
2017-10-15T02:11:35.203Z,6.83
2017-10-15T02:14:02.994Z,9.60
2017-10-15T02:16:30.424Z,6.93
2017-10-15T02:18:57.911Z,6.87
2017-10-15T02:21:25.357Z,8.13
2017-10-15T02:23:52.784Z,8.27
2017-10-15T02:26:20.234Z,9.07
2017-10-15T02:28:48.442Z,8.33
2017-10-15T02:31:15.900Z,11.53
2017-10-15T02:33:43.358Z,8.97
2017-10-15T02:36:10.790Z,6.23
2017-10-15T02:38:38.223Z,5.17
2017-10-15T02:41:05.657Z,10.70
2017-10-15T02:43:34.625Z,3.60
2017-10-15T02:46:02.076Z,4.83
2017-10-15T02:48:29.518Z,5.00
2017-10-15T02:50:56.946Z,6.73
2017-10-15T02:53:25.173Z,4.40
2017-10-15T02:55:52.605Z,9.50
2017-10-15T02:58:20.398Z,10.23
2017-10-15T03:00:47.829Z,6.97
2017-10-15T03:03:15.260Z,9.00
2017-10-15T03:05:43.475Z,10.17
2017-10-15T03:08:10.956Z,26.53
2017-10-15T03:10:38.389Z,9.67
2017-10-15T03:13:05.828Z,9.90
2017-10-15T03:15:33.624Z,9.30
2017-10-15T03:18:01.170Z,6.80
2017-10-15T03:20:28.577Z,7.07
2017-10-15T03:22:56.033Z,6.70
2017-10-15T03:25:23.556Z,6.00
2017-10-15T03:27:51.025Z,4.97
2017-10-15T03:30:18.478Z,9.57
2017-10-15T03:32:46.233Z,6.00
2017-10-15T03:35:13.672Z,5.40
2017-10-15T03:37:41.153Z,8.00
2017-10-15T03:40:08.604Z,7.43
2017-10-15T03:42:36.042Z,5.20
2017-10-15T03:45:03.480Z,5.73
2017-10-15T03:47:30.982Z,3.73
2017-10-15T03:49:58.413Z,4.77
2017-10-15T03:52:25.902Z,2.83
2017-10-15T03:54:54.185Z,5.33
2017-10-15T03:57:21.637Z,4.40
2017-10-15T03:59:49.094Z,4.83
2017-10-15T04:02:16.533Z,7.43
2017-10-15T04:04:43.978Z,6.93
2017-10-15T04:07:11.421Z,5.20
2017-10-15T04:09:39.616Z,6.70
2017-10-15T04:12:07.042Z,8.10
2017-10-15T04:14:35.256Z,6.70
2017-10-15T04:17:02.725Z,4.77
2017-10-15T04:19:30.485Z,5.20
2017-10-15T04:21:57.925Z,7.00
2017-10-15T04:24:25.367Z,6.20
2017-10-15T04:26:52.820Z,9.70
2017-10-15T04:29:22.077Z,7.57
2017-10-15T04:31:49.520Z,6.27
2017-10-15T04:34:16.945Z,8.23
2017-10-15T04:36:44.398Z,12.83
2017-10-15T04:39:11.833Z,7.30
2017-10-15T04:41:40.054Z,8.33
2017-10-15T04:44:07.485Z,7.37
2017-10-15T04:46:34.921Z,6.43
2017-10-15T04:49:02.373Z,8.30
2017-10-15T04:51:29.804Z,12.60
2017-10-15T04:53:57.241Z,11.27
2017-10-15T04:56:24.698Z,9.20
2017-10-15T04:58:52.165Z,14.07
2017-10-15T05:01:19.603Z,10.27
2017-10-15T05:03:47.049Z,11.37
2017-10-15T05:06:14.476Z,8.47
2017-10-15T05:08:42.677Z,12.57
2017-10-15T05:11:10.135Z,13.20
2017-10-15T05:13:37.569Z,8.10
2017-10-15T05:16:05.785Z,9.40
2017-10-15T05:18:33.215Z,6.60
2017-10-15T05:21:01.418Z,7.43
2017-10-15T05:23:28.846Z,7.90
2017-10-15T05:25:56.328Z,6.13
2017-10-15T05:28:23.742Z,9.43
2017-10-15T05:30:51.985Z,7.27
2017-10-15T05:33:19.424Z,13.63
2017-10-15T05:35:46.868Z,8.33
2017-10-15T05:38:14.301Z,13.30
2017-10-15T05:40:42.502Z,8.40
2017-10-15T05:43:09.938Z,9.20
2017-10-15T05:45:38.159Z,8.20
2017-10-15T05:48:05.585Z,6.10
2017-10-15T05:50:33.080Z,8.40
2017-10-15T05:53:00.510Z,8.53
2017-10-15T05:55:27.985Z,10.13
2017-10-15T05:57:55.434Z,6.20
2017-10-15T06:00:22.886Z,8.60
2017-10-15T06:02:50.368Z,6.80
2017-10-15T06:05:17.917Z,13.43
2017-10-15T06:07:45.381Z,10.27
2017-10-15T06:10:12.820Z,9.50
2017-10-15T06:12:40.280Z,10.70
2017-10-15T06:15:07.710Z,11.77
2017-10-15T06:17:35.917Z,11.37
2017-10-15T06:20:03.357Z,11.07
2017-10-15T06:22:30.845Z,10.73
2017-10-15T06:24:58.302Z,11.50
2017-10-15T06:27:25.745Z,8.63
2017-10-15T06:29:53.193Z,7.43
2017-10-15T06:32:20.629Z,8.73
2017-10-15T06:34:48.078Z,5.60
2017-10-15T06:37:16.391Z,10.63
2017-10-15T06:39:43.858Z,9.20
2017-10-15T06:42:11.288Z,9.77
2017-10-15T06:44:38.769Z,8.00
2017-10-15T06:47:06.210Z,5.80
2017-10-15T06:49:33.637Z,4.40
2017-10-15T06:52:01.865Z,7.47
2017-10-15T06:54:29.294Z,9.03
2017-10-15T06:56:56.738Z,8.33
2017-10-15T06:59:24.177Z,7.60
2017-10-15T07:01:52.416Z,6.03
2017-10-15T07:04:19.898Z,7.60
2017-10-15T07:06:48.227Z,8.07
2017-10-15T07:09:15.638Z,5.37
2017-10-15T07:11:43.846Z,6.90
2017-10-15T07:14:11.447Z,10.33
2017-10-15T07:16:38.876Z,6.30
2017-10-15T07:19:06.325Z,5.93
2017-10-15T07:21:33.748Z,7.00
2017-10-15T07:24:01.988Z,5.20
2017-10-15T07:26:29.434Z,7.13
2017-10-15T07:28:56.894Z,5.83
2017-10-15T07:31:24.661Z,5.70
2017-10-15T07:33:52.105Z,8.60
2017-10-15T07:36:19.536Z,6.33
2017-10-15T07:38:46.977Z,4.17
2017-10-15T07:41:15.177Z,5.40
2017-10-15T07:43:42.663Z,6.20
2017-10-15T07:46:10.126Z,5.63
2017-10-15T07:48:37.571Z,8.93
2017-10-15T07:51:05.021Z,6.27
2017-10-15T07:53:32.461Z,6.97
2017-10-15T07:55:59.900Z,5.60
2017-10-15T07:58:28.101Z,5.37
2017-10-15T08:00:55.544Z,5.00
2017-10-15T08:03:23.850Z,7.77
2017-10-15T08:05:51.289Z,8.27
2017-10-15T08:08:18.885Z,7.50
2017-10-15T08:10:46.330Z,14.20
2017-10-15T08:13:13.768Z,9.23
2017-10-15T08:15:41.201Z,8.80
2017-10-15T08:18:09.396Z,10.00
2017-10-15T08:20:36.853Z,12.73
2017-10-15T08:23:04.293Z,16.77
2017-10-15T08:25:32.504Z,11.60
2017-10-15T08:27:59.940Z,9.30
2017-10-15T08:30:27.376Z,9.00
2017-10-15T08:32:55.617Z,8.50
2017-10-15T08:35:23.057Z,8.60
2017-10-15T08:37:50.505Z,8.17
2017-10-15T08:40:17.954Z,17.50
2017-10-15T08:42:45.433Z,9.40
2017-10-15T08:45:12.876Z,10.73
2017-10-15T08:47:40.665Z,12.63
2017-10-15T08:50:08.266Z,9.77
2017-10-15T08:52:36.478Z,14.63
2017-10-15T08:55:03.937Z,12.57
2017-10-15T08:57:31.380Z,13.67
2017-10-15T08:59:58.878Z,12.27
2017-10-15T09:02:27.257Z,11.67
2017-10-15T09:04:54.712Z,10.20
2017-10-15T09:07:22.150Z,12.23
2017-10-15T09:09:49.704Z,13.93
2017-10-15T09:12:17.148Z,14.17
2017-10-15T09:14:44.644Z,17.17
2017-10-15T09:17:12.089Z,9.77
2017-10-15T09:19:39.556Z,11.70
2017-10-15T09:22:07.010Z,11.03
2017-10-15T09:24:34.556Z,9.87
2017-10-15T09:27:01.974Z,15.03
2017-10-15T09:29:30.185Z,15.17
2017-10-15T09:31:57.665Z,12.27
2017-10-15T09:34:25.239Z,12.00
2017-10-15T09:36:52.688Z,15.70
2017-10-15T09:39:20.157Z,13.13
2017-10-15T09:41:48.370Z,13.73
2017-10-15T09:44:15.809Z,17.30
2017-10-15T09:46:44.029Z,20.87
2017-10-15T09:49:11.805Z,17.20
2017-10-15T09:51:39.253Z,13.63
2017-10-15T09:54:06.689Z,11.77
2017-10-15T09:56:34.145Z,15.93
2017-10-15T09:59:01.577Z,14.00
2017-10-15T10:01:29.920Z,14.50
2017-10-15T10:03:57.369Z,17.90
2017-10-15T10:06:24.824Z,16.23
2017-10-15T10:08:52.269Z,21.73
2017-10-15T10:11:19.715Z,14.70
2017-10-15T10:13:47.174Z,21.00
2017-10-15T10:16:14.626Z,16.93
2017-10-15T10:18:42.117Z,18.30
2017-10-15T10:21:09.586Z,17.60
2017-10-15T10:23:37.037Z,19.47
2017-10-15T10:26:04.511Z,18.23
2017-10-15T10:28:32.761Z,15.80
2017-10-15T10:31:00.218Z,22.67
2017-10-15T10:33:27.674Z,11.20
2017-10-15T10:35:55.114Z,17.50
2017-10-15T10:38:22.589Z,14.37
2017-10-15T10:40:50.137Z,17.60
2017-10-15T10:43:17.621Z,19.00
2017-10-15T10:45:45.057Z,12.80
2017-10-15T10:48:12.512Z,17.57
2017-10-15T10:50:39.951Z,17.73
2017-10-15T10:53:07.445Z,15.37
2017-10-15T10:55:34.894Z,14.43
2017-10-15T10:58:02.336Z,16.87
2017-10-15T11:00:29.819Z,16.97
2017-10-15T11:02:57.265Z,19.17
2017-10-15T11:05:24.738Z,20.10
2017-10-15T11:07:52.187Z,22.00
2017-10-15T11:10:19.632Z,20.20
2017-10-15T11:12:47.093Z,18.83
2017-10-15T11:15:14.530Z,19.30
2017-10-15T11:17:42.009Z,19.90
2017-10-15T11:20:09.458Z,21.53
2017-10-15T11:22:36.937Z,18.03
2017-10-15T11:25:04.489Z,26.57
2017-10-15T11:27:31.929Z,17.13
2017-10-15T11:29:59.710Z,14.23
2017-10-15T11:32:27.174Z,23.37
2017-10-15T11:34:54.615Z,18.37
2017-10-15T11:37:22.065Z,12.73
2017-10-15T11:39:49.541Z,23.90
2017-10-15T11:42:17.011Z,20.13
2017-10-15T11:44:44.445Z,21.17
2017-10-15T11:47:11.913Z,18.23
2017-10-15T11:49:39.469Z,26.80
2017-10-15T11:52:06.917Z,22.20
2017-10-15T11:54:34.386Z,22.47
2017-10-15T11:57:01.834Z,18.83
2017-10-15T11:59:29.405Z,25.83
2017-10-15T12:01:56.945Z,24.10
2017-10-15T12:04:24.370Z,21.87
2017-10-15T12:06:52.593Z,16.07
2017-10-15T12:09:20.038Z,17.87
2017-10-15T12:11:47.598Z,19.83
2017-10-15T12:14:15.074Z,21.23
2017-10-15T12:16:42.534Z,18.73
2017-10-15T12:19:09.978Z,17.10
2017-10-15T12:21:37.415Z,16.23
2017-10-15T12:24:04.861Z,18.90
2017-10-15T12:26:32.304Z,20.87
2017-10-15T12:29:00.534Z,17.30
2017-10-15T12:31:28.078Z,20.37
2017-10-15T12:33:55.545Z,17.67
2017-10-15T12:36:22.986Z,18.77
2017-10-15T12:38:50.435Z,23.93
2017-10-15T12:41:17.897Z,25.73
2017-10-15T12:43:45.342Z,15.83
2017-10-15T12:46:13.145Z,16.87
2017-10-15T12:48:40.586Z,26.27
2017-10-15T12:51:08.022Z,22.23
2017-10-15T12:53:35.513Z,24.03
2017-10-15T12:56:02.961Z,23.83
2017-10-15T12:58:30.419Z,20.20
2017-10-15T13:00:57.886Z,19.00
2017-10-15T13:03:25.341Z,19.40
2017-10-15T13:05:52.789Z,23.13
2017-10-15T13:08:20.237Z,19.60
2017-10-15T13:10:47.682Z,19.60
2017-10-15T13:13:15.118Z,21.20
2017-10-15T13:15:43.338Z,19.47
2017-10-15T13:18:10.815Z,20.63
2017-10-15T13:20:38.264Z,20.90
2017-10-15T13:23:05.713Z,27.17
2017-10-15T13:25:33.262Z,22.20
2017-10-15T13:28:00.683Z,18.17
2017-10-15T13:30:28.908Z,18.60
2017-10-15T13:32:56.376Z,23.80
2017-10-15T13:35:23.819Z,22.67
2017-10-15T13:37:51.278Z,22.27
2017-10-15T13:40:18.830Z,18.80
2017-10-15T13:42:46.613Z,15.30
2017-10-15T13:45:14.071Z,15.27
2017-10-15T13:47:41.547Z,16.03
2017-10-15T13:50:08.981Z,20.00
2017-10-15T13:52:36.524Z,16.37
2017-10-15T13:55:03.958Z,15.63
2017-10-15T13:57:31.397Z,22.03
2017-10-15T13:59:59.622Z,18.80
2017-10-15T14:02:27.106Z,23.40
2017-10-15T14:04:56.075Z,15.10
2017-10-15T14:07:23.600Z,17.17
2017-10-15T14:09:52.842Z,14.97
2017-10-15T14:12:20.399Z,20.03
2017-10-15T14:14:47.984Z,17.10
2017-10-15T14:17:17.131Z,20.87
2017-10-15T14:19:46.692Z,15.40
2017-10-15T14:22:14.418Z,14.97
2017-10-15T14:24:42.068Z,14.80
2017-10-15T14:27:09.899Z,16.50
2017-10-15T14:29:37.341Z,19.73
2017-10-15T14:32:07.328Z,17.37
2017-10-15T14:34:34.777Z,18.87
2017-10-15T14:37:02.232Z,18.30
2017-10-15T14:39:29.713Z,14.70
2017-10-15T14:41:57.165Z,21.57
2017-10-15T14:44:24.713Z,19.73
2017-10-15T14:46:52.181Z,16.00
2017-10-15T14:49:19.619Z,18.70
2017-10-15T14:51:47.060Z,16.50
2017-10-15T14:54:14.552Z,15.30
2017-10-15T14:56:42.014Z,15.03
2017-10-15T14:59:09.505Z,14.57
2017-10-15T15:01:37.717Z,16.80
2017-10-15T15:04:05.166Z,17.43
2017-10-15T15:06:32.618Z,18.83
2017-10-15T15:09:00.058Z,17.30
2017-10-15T15:11:28.267Z,14.87
2017-10-15T15:13:55.716Z,16.17
2017-10-15T15:16:23.149Z,15.67
2017-10-15T15:18:51.369Z,15.23
2017-10-15T15:21:18.804Z,24.97
2017-10-15T15:23:46.258Z,18.10
2017-10-15T15:26:13.692Z,20.40
2017-10-15T15:28:41.914Z,20.50
2017-10-15T15:31:09.362Z,18.13
2017-10-15T15:33:36.837Z,23.97
2017-10-15T15:36:04.292Z,14.80
2017-10-15T15:38:31.756Z,15.90
2017-10-15T15:40:59.209Z,22.60
2017-10-15T15:43:26.664Z,22.10
2017-10-15T15:45:54.119Z,23.83
2017-10-15T15:48:21.569Z,18.63
2017-10-15T15:50:49.028Z,16.30
2017-10-15T15:53:16.489Z,17.67
2017-10-15T15:55:43.933Z,20.80
2017-10-15T15:58:11.391Z,21.37
2017-10-15T16:00:38.837Z,19.47
2017-10-15T16:03:06.293Z,19.17
2017-10-15T16:05:33.729Z,18.33
2017-10-15T16:08:01.965Z,20.87
2017-10-15T16:10:29.408Z,21.63
2017-10-15T16:12:56.864Z,15.90
2017-10-15T16:15:24.305Z,16.30
2017-10-15T16:17:51.745Z,19.97
2017-10-15T16:20:20.272Z,19.70
2017-10-15T16:22:47.692Z,15.07
2017-10-15T16:25:15.133Z,20.93
2017-10-15T16:27:43.358Z,13.73
2017-10-15T16:30:10.805Z,18.30
2017-10-15T16:32:38.263Z,14.90
2017-10-15T16:35:05.702Z,13.23
2017-10-15T16:37:33.144Z,15.50
2017-10-15T16:40:01.358Z,20.50
2017-10-15T16:42:28.798Z,17.70
2017-10-15T16:44:56.269Z,16.47
2017-10-15T16:47:23.701Z,20.80
2017-10-15T16:49:51.158Z,19.67
2017-10-15T16:52:18.593Z,20.97
2017-10-15T16:54:46.805Z,25.37
2017-10-15T16:57:14.266Z,23.17
2017-10-15T16:59:41.711Z,22.00
2017-10-15T17:02:09.161Z,23.07
2017-10-15T17:04:36.602Z,24.83
2017-10-15T17:07:05.082Z,19.03
2017-10-15T17:09:33.503Z,21.73
2017-10-15T17:12:00.925Z,20.57
2017-10-15T17:14:29.145Z,18.63
2017-10-15T17:16:56.591Z,21.40
2017-10-15T17:19:24.047Z,25.30
2017-10-15T17:21:51.508Z,33.13
2017-10-15T17:24:18.978Z,30.53
2017-10-15T17:26:46.423Z,30.43
2017-10-15T17:29:13.870Z,36.33
2017-10-15T17:31:41.331Z,34.00
2017-10-15T17:34:08.761Z,36.13
2017-10-15T17:36:37.941Z,28.00
2017-10-15T17:39:05.474Z,39.13
2017-10-15T17:41:32.918Z,26.50
2017-10-15T17:44:00.379Z,23.00
2017-10-15T17:46:27.837Z,25.40
2017-10-15T17:48:55.297Z,29.50
2017-10-15T17:51:22.881Z,29.00
2017-10-15T17:53:50.340Z,25.87
2017-10-15T17:56:17.786Z,27.37
2017-10-15T17:58:45.226Z,33.00
2017-10-15T18:01:12.766Z,26.37
2017-10-15T18:03:40.186Z,32.70
2017-10-15T18:06:08.413Z,28.10
2017-10-15T18:08:35.865Z,25.40
2017-10-15T18:11:03.318Z,34.53
2017-10-15T18:13:30.781Z,31.87
2017-10-15T18:15:58.240Z,27.50
2017-10-15T18:18:25.670Z,37.60
2017-10-15T18:20:53.114Z,30.47
2017-10-15T18:23:21.330Z,25.97
2017-10-15T18:25:48.876Z,39.37
2017-10-15T18:28:16.298Z,27.10
2017-10-15T18:30:44.525Z,36.80
2017-10-15T18:33:11.973Z,26.03
2017-10-15T18:35:39.429Z,30.27
2017-10-15T18:38:06.878Z,21.80
2017-10-15T18:40:34.343Z,31.23
2017-10-15T18:43:01.766Z,32.20
2017-10-15T18:45:29.985Z,31.70
2017-10-15T18:47:57.435Z,18.17
2017-10-15T18:50:24.883Z,30.73
2017-10-15T18:52:52.346Z,21.57
2017-10-15T18:55:19.783Z,26.13
2017-10-15T18:57:47.979Z,24.20
2017-10-15T19:00:15.441Z,23.87
2017-10-15T19:02:42.891Z,28.90
2017-10-15T19:05:10.348Z,24.20
2017-10-15T19:07:37.775Z,28.73
2017-10-15T19:10:06.087Z,29.07
2017-10-15T19:12:33.530Z,38.73
2017-10-15T19:15:00.977Z,27.20
2017-10-15T19:17:28.431Z,24.77
2017-10-15T19:19:56.641Z,26.57
2017-10-15T19:22:24.194Z,29.50
2017-10-15T19:24:51.643Z,19.03
2017-10-15T19:27:19.105Z,27.70
2017-10-15T19:29:46.563Z,28.63
2017-10-15T19:32:14.002Z,23.63
2017-10-15T19:34:41.442Z,31.40
2017-10-15T19:37:09.664Z,26.80
2017-10-15T19:39:37.110Z,25.43
2017-10-15T19:42:04.569Z,22.93
2017-10-15T19:44:32.193Z,16.73
2017-10-15T19:47:01.250Z,20.30
2017-10-15T19:49:28.737Z,27.80
2017-10-15T19:51:56.171Z,21.70
2017-10-15T19:54:23.632Z,20.37
2017-10-15T19:56:52.822Z,20.80
2017-10-15T19:59:20.269Z,21.20
2017-10-15T20:01:47.708Z,16.80
2017-10-15T20:04:15.181Z,23.10
2017-10-15T20:06:42.637Z,17.83
2017-10-15T20:09:10.081Z,20.23
2017-10-15T20:11:37.553Z,20.10
2017-10-15T20:14:05.009Z,22.40
2017-10-15T20:16:32.470Z,17.03
2017-10-15T20:18:59.925Z,16.13
2017-10-15T20:21:27.380Z,19.33
2017-10-15T20:23:54.837Z,18.10
2017-10-15T20:26:22.300Z,16.07
2017-10-15T20:28:49.764Z,21.80
2017-10-15T20:31:17.205Z,18.73
2017-10-15T20:33:44.657Z,17.10
2017-10-15T20:36:12.147Z,20.83
2017-10-15T20:38:39.606Z,18.97
2017-10-15T20:41:07.050Z,23.17
2017-10-15T20:43:34.493Z,16.07
2017-10-15T20:46:01.941Z,19.43
2017-10-15T20:48:29.414Z,16.83
2017-10-15T20:50:56.874Z,16.30
2017-10-15T20:53:24.333Z,22.70
2017-10-15T20:55:51.788Z,19.10
2017-10-15T20:58:19.236Z,19.83
2017-10-15T21:00:46.685Z,20.80
2017-10-15T21:03:14.139Z,16.47
2017-10-15T21:05:41.572Z,25.63
2017-10-15T21:08:09.789Z,22.97
2017-10-15T21:10:37.233Z,13.67
2017-10-15T21:13:04.694Z,14.27
2017-10-15T21:15:32.153Z,13.30
2017-10-15T21:17:59.741Z,18.27
2017-10-15T21:20:27.173Z,20.17
2017-10-15T21:22:54.615Z,12.20
2017-10-15T21:25:22.107Z,12.67
2017-10-15T21:27:49.566Z,20.23
2017-10-15T21:30:17.025Z,17.43
2017-10-15T21:32:44.485Z,15.53
2017-10-15T21:35:12.037Z,14.60
2017-10-15T21:37:39.479Z,10.90
2017-10-15T21:40:06.930Z,12.50
2017-10-15T21:42:34.492Z,16.93
2017-10-15T21:45:01.957Z,16.80
2017-10-15T21:47:29.417Z,15.50
2017-10-15T21:49:56.877Z,10.13
2017-10-15T21:52:24.349Z,14.00
2017-10-15T21:54:51.779Z,13.13
2017-10-15T21:57:19.236Z,15.43
2017-10-15T21:59:46.670Z,9.53
2017-10-15T22:02:14.465Z,8.63
2017-10-15T22:04:41.905Z,12.70
2017-10-15T22:07:09.337Z,11.00
2017-10-15T22:09:37.572Z,12.10
2017-10-15T22:12:05.010Z,9.20
2017-10-15T22:14:32.461Z,12.23
2017-10-15T22:16:59.904Z,13.50
2017-10-15T22:19:27.388Z,8.77
2017-10-15T22:22:00.433Z,9.80
2017-10-15T22:24:27.933Z,9.10
2017-10-15T22:26:55.800Z,11.93
2017-10-15T22:29:23.374Z,10.13
2017-10-15T22:31:50.825Z,8.73
2017-10-15T22:34:18.281Z,10.03
2017-10-15T22:36:45.729Z,12.63
2017-10-15T22:39:13.196Z,10.87
2017-10-15T22:41:40.653Z,9.10
2017-10-15T22:44:08.093Z,9.40
2017-10-15T22:46:35.581Z,15.87
2017-10-15T22:49:03.014Z,9.70
2017-10-15T22:51:30.471Z,8.23
2017-10-15T22:53:57.940Z,15.00
2017-10-15T22:56:25.381Z,10.23
2017-10-15T22:58:52.825Z,8.93
2017-10-15T23:01:20.257Z,13.17
2017-10-15T23:03:48.786Z,12.13
2017-10-15T23:06:16.224Z,11.37
2017-10-15T23:08:43.657Z,10.90
2017-10-15T23:11:11.880Z,7.40
2017-10-15T23:13:39.325Z,13.60
2017-10-15T23:16:06.774Z,14.87
2017-10-15T23:18:34.229Z,11.20
2017-10-15T23:21:01.677Z,10.33
2017-10-15T23:23:29.108Z,8.10
2017-10-15T23:25:57.427Z,11.60
2017-10-15T23:28:24.857Z,9.10
2017-10-15T23:30:52.360Z,6.50
2017-10-15T23:33:19.820Z,8.70
2017-10-15T23:35:47.375Z,9.17
2017-10-15T23:38:14.805Z,9.30
2017-10-15T23:40:42.229Z,9.20
2017-10-15T23:43:09.674Z,10.40
2017-10-15T23:45:37.205Z,8.67
2017-10-15T23:48:04.750Z,10.80
2017-10-15T23:50:32.188Z,5.10
2017-10-15T23:52:59.677Z,9.50
2017-10-15T23:55:27.142Z,4.73
2017-10-15T23:57:54.581Z,10.83
